createdAt,value
2023-03-19T00:01:06.436Z,100782.50
2023-03-19T00:03:35.845Z,100789.22
2023-03-19T00:06:04.840Z,100795.25
2023-03-19T00:08:34.667Z,100794.38
2023-03-19T00:11:08.411Z,100803.03
2023-03-19T00:13:36.963Z,100809.94
2023-03-19T00:16:06.178Z,100806.84
2023-03-19T00:18:34.773Z,100815.50
2023-03-19T00:21:03.118Z,100828.28
2023-03-19T00:23:31.480Z,100823.72
2023-03-19T00:26:01.895Z,100812.97
2023-03-19T00:28:30.326Z,100801.72
2023-03-19T00:30:59.171Z,100785.19
2023-03-19T00:33:27.553Z,100777.00
2023-03-19T00:35:55.946Z,100787.28
2023-03-19T00:38:24.258Z,100787.66
2023-03-19T00:40:52.535Z,100791.28
2023-03-19T00:43:22.245Z,100803.03
2023-03-19T00:45:50.953Z,100805.91
2023-03-19T00:48:19.470Z,100805.00
2023-03-19T00:50:47.827Z,100799.72
2023-03-19T00:53:16.549Z,100805.63
2023-03-19T00:55:45.075Z,100797.56
2023-03-19T00:58:13.531Z,100792.53
2023-03-19T01:00:43.202Z,100789.91
2023-03-19T01:03:11.833Z,100784.56
2023-03-19T01:05:40.137Z,100782.25
2023-03-19T01:08:08.454Z,100779.88
2023-03-19T01:10:36.993Z,100777.94
2023-03-19T01:13:05.327Z,100781.84
2023-03-19T01:15:36.821Z,100792.94
2023-03-19T01:18:07.755Z,100792.66
2023-03-19T01:20:37.216Z,100798.22
2023-03-19T01:23:05.614Z,100788.50
2023-03-19T01:25:34.694Z,100792.94
2023-03-19T01:28:03.363Z,100791.84
2023-03-19T01:30:31.938Z,100794.41
2023-03-19T01:33:00.625Z,100788.09
2023-03-19T01:35:30.499Z,100771.44
2023-03-19T01:37:58.900Z,100768.03
2023-03-19T01:40:27.264Z,100766.50
2023-03-19T01:42:58.420Z,100777.41
2023-03-19T01:45:35.494Z,100771.34
2023-03-19T01:48:04.501Z,100767.84
2023-03-19T01:50:42.753Z,100768.97
2023-03-19T01:53:13.453Z,100770.13
2023-03-19T01:55:42.961Z,100768.19
2023-03-19T01:58:11.886Z,100770.09
2023-03-19T02:00:40.575Z,100770.88
2023-03-19T02:03:09.256Z,100765.06
2023-03-19T02:05:40.760Z,100760.06
2023-03-19T02:08:14.094Z,100754.97
2023-03-19T02:10:43.499Z,100758.66
2023-03-19T02:13:12.376Z,100762.00
2023-03-19T02:15:41.230Z,100769.81
2023-03-19T02:18:10.421Z,100769.50
2023-03-19T02:20:50.763Z,100768.66
2023-03-19T02:23:32.115Z,100770.03
2023-03-19T02:26:09.040Z,100773.09
2023-03-19T02:28:42.572Z,100764.00
2023-03-19T02:31:12.154Z,100764.44
2023-03-19T02:33:41.115Z,100749.94
2023-03-19T02:36:15.543Z,100749.94
2023-03-19T02:38:46.202Z,100752.81
2023-03-19T02:41:15.892Z,100753.63
2023-03-19T02:43:44.349Z,100756.72
2023-03-19T02:46:14.494Z,100751.78
2023-03-19T02:48:43.978Z,100753.94
2023-03-19T02:51:13.553Z,100759.78
2023-03-19T02:53:41.943Z,100764.22
2023-03-19T02:56:10.556Z,100755.88
2023-03-19T02:58:40.233Z,100759.81
2023-03-19T03:01:08.539Z,100757.84
2023-03-19T03:03:37.432Z,100754.22
2023-03-19T03:06:06.167Z,100762.00
2023-03-19T03:08:34.484Z,100757.50
2023-03-19T03:11:02.773Z,100760.00
2023-03-19T03:13:31.609Z,100766.16
2023-03-19T03:16:01.935Z,100767.84
2023-03-19T03:18:30.312Z,100762.56
2023-03-19T03:20:58.635Z,100766.91
2023-03-19T03:23:27.730Z,100764.97
2023-03-19T03:25:56.191Z,100769.16
2023-03-19T03:28:24.936Z,100771.66
2023-03-19T03:30:59.069Z,100778.34
2023-03-19T03:33:28.846Z,100773.09
2023-03-19T03:35:57.314Z,100780.50
2023-03-19T03:38:25.761Z,100779.44
2023-03-19T03:40:54.902Z,100784.78
2023-03-19T03:43:23.475Z,100776.44
2023-03-19T03:45:51.865Z,100788.94
2023-03-19T03:48:20.186Z,100781.09
2023-03-19T03:50:50.097Z,100785.97
2023-03-19T03:53:18.406Z,100786.44
2023-03-19T03:55:46.746Z,100795.66
2023-03-19T03:58:15.060Z,100801.66
2023-03-19T04:00:43.526Z,100801.00
2023-03-19T04:03:11.869Z,100803.06
2023-03-19T04:05:40.692Z,100798.13
2023-03-19T04:08:10.379Z,100797.41
2023-03-19T04:10:42.437Z,100808.56
2023-03-19T04:13:10.927Z,100801.06
2023-03-19T04:15:39.514Z,100793.13
2023-03-19T04:18:07.834Z,100793.97
2023-03-19T04:20:36.714Z,100797.59
2023-03-19T04:23:05.103Z,100804.03
2023-03-19T04:25:34.790Z,100808.47
2023-03-19T04:28:03.772Z,100810.09
2023-03-19T04:30:35.162Z,100812.59
2023-03-19T04:33:03.800Z,100805.63
2023-03-19T04:35:32.228Z,100816.88
2023-03-19T04:38:00.544Z,100825.44
2023-03-19T04:40:29.261Z,100819.41
2023-03-19T04:42:58.911Z,100820.34
2023-03-19T04:45:27.410Z,100815.38
2023-03-19T04:47:56.341Z,100823.06
2023-03-19T04:50:25.315Z,100819.69
2023-03-19T04:52:53.620Z,100821.00
2023-03-19T04:55:21.939Z,100825.34
2023-03-19T04:57:50.850Z,100825.16
2023-03-19T05:00:21.967Z,100821.94
2023-03-19T05:02:50.331Z,100826.31
2023-03-19T05:05:18.862Z,100826.75
2023-03-19T05:07:47.448Z,100822.50
2023-03-19T05:10:15.821Z,100829.69
2023-03-19T05:12:44.139Z,100823.91
2023-03-19T05:15:13.244Z,100838.84
2023-03-19T05:17:43.561Z,100838.56
2023-03-19T05:20:14.439Z,100837.47
2023-03-19T05:22:42.830Z,100845.38
2023-03-19T05:25:11.367Z,100846.06
2023-03-19T05:27:39.698Z,100841.88
2023-03-19T05:30:11.047Z,100848.38
2023-03-19T05:32:40.867Z,100842.72
2023-03-19T05:35:11.349Z,100836.97
2023-03-19T05:37:39.637Z,100844.31
2023-03-19T05:40:08.983Z,100846.22
2023-03-19T05:42:38.045Z,100853.03
2023-03-19T05:45:07.202Z,100858.19
2023-03-19T05:47:36.130Z,100856.97
2023-03-19T05:50:04.963Z,100858.75
2023-03-19T05:52:34.832Z,100870.28
2023-03-19T05:55:04.716Z,100858.16
2023-03-19T05:57:33.022Z,100861.28
2023-03-19T06:00:01.790Z,100869.03
2023-03-19T06:02:30.331Z,100874.53
2023-03-19T06:04:58.666Z,100863.31
2023-03-19T06:07:27.155Z,100863.59
2023-03-19T06:09:56.966Z,100866.91
2023-03-19T06:12:25.446Z,100873.09
2023-03-19T06:14:53.711Z,100872.44
2023-03-19T06:17:22.459Z,100878.41
2023-03-19T06:19:50.932Z,100884.16
2023-03-19T06:22:19.392Z,100877.00
2023-03-19T06:24:47.738Z,100879.59
2023-03-19T06:27:17.472Z,100885.81
2023-03-19T06:29:45.872Z,100889.03
2023-03-19T06:32:14.664Z,100887.44
2023-03-19T06:34:42.970Z,100882.63
2023-03-19T06:37:11.931Z,100884.72
2023-03-19T06:39:40.541Z,100893.38
2023-03-19T06:42:09.034Z,100896.56
2023-03-19T06:44:38.723Z,100900.13
2023-03-19T06:47:08.591Z,100905.53
2023-03-19T06:49:37.444Z,100911.09
2023-03-19T06:52:06.235Z,100906.53
2023-03-19T06:54:36.093Z,100907.44
2023-03-19T06:57:06.474Z,100912.47
2023-03-19T06:59:34.799Z,100905.88
2023-03-19T07:02:05.563Z,100904.53
2023-03-19T07:04:34.092Z,100906.53
2023-03-19T07:07:02.674Z,100914.19
2023-03-19T07:09:31.118Z,100914.19
2023-03-19T07:11:59.546Z,100914.38
2023-03-19T07:14:28.209Z,100915.53
2023-03-19T07:16:56.918Z,100920.88
2023-03-19T07:19:26.683Z,100922.81
2023-03-19T07:21:55.012Z,100931.50
2023-03-19T07:24:23.312Z,100930.88
2023-03-19T07:26:51.910Z,100928.22
2023-03-19T07:29:20.539Z,100936.59
2023-03-19T07:31:48.940Z,100933.88
2023-03-19T07:34:17.315Z,100941.81
2023-03-19T07:36:47.546Z,100944.69
2023-03-19T07:39:15.957Z,100939.38
2023-03-19T07:41:47.767Z,100952.63
2023-03-19T07:44:17.059Z,100945.53
2023-03-19T07:46:45.604Z,100946.78
2023-03-19T07:49:13.906Z,100951.81
2023-03-19T07:51:42.233Z,100952.16
2023-03-19T07:54:11.899Z,100948.78
2023-03-19T07:56:40.620Z,100945.41
2023-03-19T07:59:09.202Z,100950.47
2023-03-19T08:01:37.588Z,100953.94
2023-03-19T08:04:06.002Z,100956.75
2023-03-19T08:06:34.490Z,100968.09
2023-03-19T08:09:02.794Z,100960.84
2023-03-19T08:11:32.547Z,100957.63
2023-03-19T08:14:00.982Z,100962.75
2023-03-19T08:16:29.361Z,100965.25
2023-03-19T08:18:57.748Z,100970.16
2023-03-19T08:21:26.447Z,100966.31
2023-03-19T08:23:54.987Z,100974.38
2023-03-19T08:26:23.306Z,100971.19
2023-03-19T08:28:53.461Z,100973.44
2023-03-19T08:31:22.093Z,100977.03
2023-03-19T08:33:50.524Z,100976.19
2023-03-19T08:36:19.008Z,100983.97
2023-03-19T08:38:47.314Z,100976.56
2023-03-19T08:41:15.636Z,100979.91
2023-03-19T08:43:43.902Z,100978.13
2023-03-19T08:46:13.629Z,100976.13
2023-03-19T08:48:41.996Z,100985.75
2023-03-19T08:51:10.913Z,100992.53
2023-03-19T08:53:40.059Z,100986.41
2023-03-19T08:56:09.620Z,100993.91
2023-03-19T08:58:37.923Z,100993.84
2023-03-19T09:01:10.129Z,100988.44
2023-03-19T09:03:41.559Z,100987.94
2023-03-19T09:06:12.414Z,100986.16
2023-03-19T09:08:40.925Z,100985.47
2023-03-19T09:11:10.528Z,100990.63
2023-03-19T09:13:39.315Z,100988.88
2023-03-19T09:16:08.276Z,100992.69
2023-03-19T09:18:36.896Z,100990.28
2023-03-19T09:21:07.083Z,100996.75
2023-03-19T09:23:37.226Z,100990.63
2023-03-19T09:26:06.053Z,101000.91
2023-03-19T09:28:34.408Z,100996.53
2023-03-19T09:31:07.137Z,100997.25
2023-03-19T09:33:35.525Z,101006.03
2023-03-19T09:36:03.981Z,101006.38
2023-03-19T09:38:33.701Z,101004.56
2023-03-19T09:41:14.678Z,101018.09
2023-03-19T09:44:05.043Z,101020.78
2023-03-19T09:46:44.566Z,101019.13
2023-03-19T09:49:22.426Z,101025.31
2023-03-19T09:51:54.056Z,101020.19
2023-03-19T09:54:32.149Z,101026.56
2023-03-19T09:57:01.141Z,101019.94
2023-03-19T09:59:30.542Z,101017.63
2023-03-19T10:02:15.781Z,101021.78
2023-03-19T10:04:50.283Z,101018.34
2023-03-19T10:07:48.062Z,101019.03
2023-03-19T10:10:49.477Z,101017.53
2023-03-19T10:13:37.866Z,101026.56
2023-03-19T10:16:07.521Z,101035.56
2023-03-19T10:18:39.452Z,101036.69
2023-03-19T10:21:13.876Z,101042.47
2023-03-19T10:23:48.371Z,101042.34
2023-03-19T10:26:20.812Z,101042.84
2023-03-19T10:29:04.339Z,101049.97
2023-03-19T10:31:53.035Z,101045.50
2023-03-19T10:34:32.713Z,101046.03
2023-03-19T10:37:04.767Z,101042.78
2023-03-19T10:39:36.447Z,101040.72
2023-03-19T10:42:36.262Z,101042.75
2023-03-19T10:45:15.987Z,101049.13
2023-03-19T10:47:45.207Z,101047.38
2023-03-19T10:50:19.413Z,101045.59
2023-03-19T10:52:52.645Z,101054.38
2023-03-19T10:55:26.590Z,101060.72
2023-03-19T10:58:05.813Z,101057.72
2023-03-19T11:00:36.369Z,101059.41
2023-03-19T11:03:05.940Z,101053.00
2023-03-19T11:05:35.873Z,101064.34
2023-03-19T11:08:08.257Z,101062.94
2023-03-19T11:10:37.708Z,101060.63
2023-03-19T11:13:21.103Z,101061.97
2023-03-19T11:15:50.172Z,101065.72
2023-03-19T11:18:22.873Z,101067.00
2023-03-19T11:20:59.717Z,101065.19
2023-03-19T11:23:31.543Z,101065.41
2023-03-19T11:26:02.923Z,101063.44
2023-03-19T11:28:34.018Z,101055.88
2023-03-19T11:31:10.536Z,101062.06
2023-03-19T11:33:56.087Z,101054.91
2023-03-19T11:36:30.582Z,101053.22
2023-03-19T11:39:16.557Z,101055.81
2023-03-19T11:42:03.942Z,101057.16
2023-03-19T11:44:42.380Z,101057.84
2023-03-19T11:47:27.454Z,101057.25
2023-03-19T11:50:22.540Z,101060.81
2023-03-19T11:53:09.944Z,101056.88
2023-03-19T11:55:45.480Z,101054.81
2023-03-19T11:58:41.526Z,101052.94
2023-03-19T12:01:25.385Z,101049.94
2023-03-19T12:04:21.799Z,101048.63
2023-03-19T12:07:04.264Z,101055.44
2023-03-19T12:09:42.187Z,101041.44
2023-03-19T12:12:22.203Z,101043.25
2023-03-19T12:15:06.618Z,101046.16
2023-03-19T12:17:47.450Z,101045.72
2023-03-19T12:20:47.805Z,101049.25
2023-03-19T12:23:43.522Z,101050.16
2023-03-19T12:26:21.122Z,101055.44
2023-03-19T12:29:00.339Z,101054.03
2023-03-19T12:31:46.706Z,101039.03
2023-03-19T12:34:29.722Z,101053.91
2023-03-19T12:37:09.287Z,101047.97
2023-03-19T12:39:43.368Z,101058.59
2023-03-19T12:42:18.871Z,101052.09
2023-03-19T12:44:52.265Z,101048.88
2023-03-19T12:47:26.726Z,101041.88
2023-03-19T12:50:02.808Z,101047.28
2023-03-19T12:52:37.458Z,101049.34
2023-03-19T12:55:17.038Z,101046.50
2023-03-19T12:57:49.928Z,101047.75
2023-03-19T13:00:27.724Z,101053.47
2023-03-19T13:03:04.416Z,101052.09
2023-03-19T13:05:40.542Z,101055.47
2023-03-19T13:08:16.990Z,101053.88
2023-03-19T13:10:45.311Z,101054.09
2023-03-19T13:13:33.353Z,101044.31
2023-03-19T13:16:10.494Z,101052.94
2023-03-19T13:18:44.922Z,101053.97
2023-03-19T13:21:24.744Z,101054.13
2023-03-19T13:24:05.742Z,101042.72
2023-03-19T13:26:35.879Z,101053.22
2023-03-19T13:29:17.142Z,101054.25
2023-03-19T13:31:46.415Z,101055.81
2023-03-19T13:34:26.557Z,101050.16
2023-03-19T13:37:05.599Z,101046.53
2023-03-19T13:39:36.124Z,101046.97
2023-03-19T13:42:41.396Z,101044.72
2023-03-19T13:45:31.818Z,101044.38
2023-03-19T13:48:24.356Z,101038.63
2023-03-19T13:51:00.846Z,101048.59
2023-03-19T13:53:42.523Z,101053.84
2023-03-19T13:56:28.571Z,101047.69
2023-03-19T13:59:27.003Z,101049.47
2023-03-19T14:01:56.039Z,101048.50
2023-03-19T14:04:27.993Z,101045.59
2023-03-19T14:06:59.277Z,101043.50
2023-03-19T14:09:39.859Z,101036.44
2023-03-19T14:12:26.352Z,101044.78
2023-03-19T14:15:00.160Z,101048.50
2023-03-19T14:17:34.421Z,101047.00
2023-03-19T14:20:28.022Z,101044.78
2023-03-19T14:23:23.471Z,101040.16
2023-03-19T14:26:06.583Z,101042.97
2023-03-19T14:28:53.367Z,101049.75
2023-03-19T14:31:30.062Z,101051.03
2023-03-19T14:34:05.644Z,101049.59
2023-03-19T14:36:39.512Z,101055.44
2023-03-19T14:39:18.924Z,101054.88
2023-03-19T14:41:57.143Z,101059.56
2023-03-19T14:45:16.470Z,101051.09
2023-03-19T14:48:18.136Z,101060.63
2023-03-19T14:51:25.107Z,101052.13
2023-03-19T14:53:58.614Z,101048.81
2023-03-19T14:56:32.524Z,101057.28
2023-03-19T14:59:04.305Z,101056.09
2023-03-19T15:01:34.834Z,101054.03
2023-03-19T15:04:07.887Z,101053.16
2023-03-19T15:06:39.797Z,101052.09
2023-03-19T15:09:11.763Z,101062.09
2023-03-19T15:12:33.859Z,101061.72
2023-03-19T15:15:24.329Z,101058.28
2023-03-19T15:18:03.837Z,101055.38
2023-03-19T15:20:38.773Z,101058.00
2023-03-19T15:23:20.029Z,101061.97
2023-03-19T15:25:57.880Z,101054.84
2023-03-19T15:28:28.754Z,101057.69
2023-03-19T15:31:12.932Z,101053.72
2023-03-19T15:33:50.110Z,101060.16
2023-03-19T15:36:25.169Z,101060.75
2023-03-19T15:38:58.461Z,101059.03
2023-03-19T15:41:32.222Z,101061.09
2023-03-19T15:44:02.168Z,101066.22
2023-03-19T15:46:35.968Z,101064.50
2023-03-19T15:49:09.852Z,101064.03
2023-03-19T15:51:38.859Z,101068.09
2023-03-19T15:54:07.753Z,101075.63
2023-03-19T15:56:36.501Z,101082.13
2023-03-19T15:59:05.583Z,101070.97
2023-03-19T16:01:36.202Z,101084.59
2023-03-19T16:04:08.980Z,101081.69
2023-03-19T16:06:39.973Z,101090.34
2023-03-19T16:09:24.093Z,101089.00
2023-03-19T16:11:53.211Z,101088.72
2023-03-19T16:14:26.720Z,101095.41
2023-03-19T16:17:03.262Z,101098.47
2023-03-19T16:19:37.603Z,101094.19
2023-03-19T16:22:15.693Z,101102.88
2023-03-19T16:24:46.970Z,101100.34
2023-03-19T16:27:18.211Z,101097.38
2023-03-19T16:29:48.698Z,101105.63
2023-03-19T16:32:25.103Z,101111.59
2023-03-19T16:34:55.566Z,101107.78
2023-03-19T16:37:45.571Z,101109.63
2023-03-19T16:40:47.344Z,101113.69
2023-03-19T16:43:22.294Z,101115.72
2023-03-19T16:46:05.421Z,101117.19
2023-03-19T16:48:35.340Z,101126.91
2023-03-19T16:51:04.138Z,101124.72
2023-03-19T16:53:33.505Z,101135.06
2023-03-19T16:56:03.498Z,101135.63
2023-03-19T16:58:36.180Z,101143.16
2023-03-19T17:01:06.926Z,101144.28
2023-03-19T17:03:36.608Z,101149.25
2023-03-19T17:06:05.449Z,101154.50
2023-03-19T17:08:33.776Z,101149.19
2023-03-19T17:11:02.564Z,101161.50
2023-03-19T17:13:33.377Z,101157.84
2023-03-19T17:16:05.161Z,101169.00
2023-03-19T17:18:37.650Z,101168.13
2023-03-19T17:21:10.728Z,101179.25
2023-03-19T17:23:39.330Z,101182.88
2023-03-19T17:26:16.571Z,101184.31
2023-03-19T17:28:45.569Z,101192.66
2023-03-19T17:31:26.202Z,101186.00
2023-03-19T17:34:02.083Z,101186.00
2023-03-19T17:36:31.042Z,101179.59
2023-03-19T17:38:59.400Z,101186.50
2023-03-19T17:41:27.707Z,101194.63
2023-03-19T17:43:56.046Z,101197.97
2023-03-19T17:46:27.514Z,101207.13
2023-03-19T17:48:57.481Z,101200.41
2023-03-19T17:51:26.292Z,101199.47
2023-03-19T17:53:56.401Z,101200.91
2023-03-19T17:56:26.827Z,101211.22
2023-03-19T17:58:55.286Z,101213.41
2023-03-19T18:01:27.058Z,101220.66
2023-03-19T18:03:59.403Z,101219.22
2023-03-19T18:06:34.819Z,101224.53
2023-03-19T18:09:03.810Z,101223.72
2023-03-19T18:11:32.291Z,101226.53
2023-03-19T18:14:00.667Z,101226.81
2023-03-19T18:16:31.763Z,101226.81
2023-03-19T18:19:04.372Z,101234.88
2023-03-19T18:21:32.971Z,101239.06
2023-03-19T18:24:01.430Z,101231.78
2023-03-19T18:26:29.783Z,101237.34
2023-03-19T18:28:58.291Z,101251.78
2023-03-19T18:31:30.409Z,101247.34
2023-03-19T18:34:03.971Z,101251.56
2023-03-19T18:36:34.423Z,101254.84
2023-03-19T18:39:03.513Z,101252.59
2023-03-19T18:41:31.842Z,101259.00
2023-03-19T18:44:00.138Z,101267.84
2023-03-19T18:46:32.243Z,101266.75
2023-03-19T18:49:05.376Z,101270.72
2023-03-19T18:51:33.962Z,101273.56
2023-03-19T18:54:02.540Z,101278.88
2023-03-19T18:56:33.061Z,101285.03
2023-03-19T18:59:03.058Z,101279.44
2023-03-19T19:01:31.474Z,101285.03
2023-03-19T19:04:01.398Z,101295.81
2023-03-19T19:06:46.926Z,101300.25
2023-03-19T19:09:15.851Z,101297.50
2023-03-19T19:11:47.577Z,101311.03
2023-03-19T19:14:21.881Z,101310.81
2023-03-19T19:16:51.708Z,101313.22
2023-03-19T19:19:24.025Z,101318.25
2023-03-19T19:21:53.107Z,101323.66
2023-03-19T19:24:21.534Z,101327.06
2023-03-19T19:26:54.279Z,101323.22
2023-03-19T19:29:26.338Z,101328.56
2023-03-19T19:31:55.571Z,101336.19
2023-03-19T19:34:25.539Z,101334.50
2023-03-19T19:36:57.584Z,101343.91
2023-03-19T19:39:25.984Z,101347.28
2023-03-19T19:41:56.787Z,101346.06
2023-03-19T19:44:25.196Z,101353.97
2023-03-19T19:46:54.633Z,101359.53
2023-03-19T19:49:25.320Z,101355.84
2023-03-19T19:51:53.653Z,101360.84
2023-03-19T19:54:24.999Z,101367.09
2023-03-19T19:56:53.397Z,101369.31
2023-03-19T19:59:26.124Z,101372.25
2023-03-19T20:01:54.726Z,101381.88
2023-03-19T20:04:24.452Z,101395.88
2023-03-19T20:06:52.792Z,101397.88
2023-03-19T20:09:22.182Z,101399.94
2023-03-19T20:11:51.237Z,101412.41
2023-03-19T20:14:19.832Z,101409.53
2023-03-19T20:16:48.835Z,101417.13
2023-03-19T20:19:20.159Z,101410.22
2023-03-19T20:21:50.203Z,101420.88
2023-03-19T20:24:18.479Z,101419.56
2023-03-19T20:26:46.896Z,101423.03
2023-03-19T20:29:16.668Z,101424.88
2023-03-19T20:31:47.213Z,101432.22
2023-03-19T20:34:28.582Z,101433.69
2023-03-19T20:37:06.613Z,101429.66
2023-03-19T20:39:34.902Z,101435.19
2023-03-19T20:42:03.257Z,101431.88
2023-03-19T20:44:31.650Z,101440.19
2023-03-19T20:47:00.111Z,101444.09
2023-03-19T20:49:29.154Z,101453.94
2023-03-19T20:51:57.492Z,101446.88
2023-03-19T20:54:27.837Z,101457.94
2023-03-19T20:56:56.365Z,101463.00
2023-03-19T20:59:26.919Z,101458.97
2023-03-19T21:01:56.517Z,101469.38
2023-03-19T21:04:24.928Z,101459.69
2023-03-19T21:06:54.238Z,101472.66
2023-03-19T21:09:24.327Z,101467.13
2023-03-19T21:11:53.999Z,101467.63
2023-03-19T21:14:23.628Z,101471.25
2023-03-19T21:16:51.943Z,101463.09
2023-03-19T21:19:20.216Z,101460.16
2023-03-19T21:21:49.199Z,101469.31
2023-03-19T21:24:20.481Z,101467.00
2023-03-19T21:26:49.284Z,101470.13
2023-03-19T21:29:25.106Z,101474.41
2023-03-19T21:31:55.578Z,101479.41
2023-03-19T21:34:23.927Z,101480.53
2023-03-19T21:36:52.498Z,101472.91
2023-03-19T21:39:20.805Z,101478.97
2023-03-19T21:41:49.226Z,101478.31
2023-03-19T21:44:24.525Z,101479.19
2023-03-19T21:46:53.096Z,101484.00
2023-03-19T21:49:21.927Z,101485.53
2023-03-19T21:51:50.432Z,101484.38
2023-03-19T21:54:18.731Z,101490.91
2023-03-19T21:56:47.667Z,101491.81
2023-03-19T21:59:20.758Z,101499.84
2023-03-19T22:01:49.222Z,101503.44
2023-03-19T22:04:19.231Z,101498.41
2023-03-19T22:06:49.232Z,101500.06
2023-03-19T22:09:17.680Z,101497.56
2023-03-19T22:11:46.162Z,101504.31
2023-03-19T22:14:20.739Z,101510.78
2023-03-19T22:16:53.062Z,101505.91
2023-03-19T22:19:22.426Z,101506.69
2023-03-19T22:21:50.946Z,101511.75
2023-03-19T22:24:19.264Z,101510.34
2023-03-19T22:26:49.579Z,101513.00
2023-03-19T22:29:23.531Z,101512.03
2023-03-19T22:31:53.872Z,101507.22
2023-03-19T22:34:24.978Z,101515.78
2023-03-19T22:36:53.307Z,101508.97
2023-03-19T22:39:21.689Z,101508.19
2023-03-19T22:41:50.915Z,101513.00
2023-03-19T22:44:27.555Z,101511.63
2023-03-19T22:46:57.571Z,101512.91
2023-03-19T22:49:26.438Z,101509.84
2023-03-19T22:51:55.760Z,101510.13
2023-03-19T22:54:24.131Z,101505.69
2023-03-19T22:56:52.454Z,101507.22
2023-03-19T22:59:23.033Z,101512.53
2023-03-19T23:01:51.616Z,101515.03
2023-03-19T23:04:23.085Z,101513.84
2023-03-19T23:06:52.661Z,101519.97
2023-03-19T23:09:25.087Z,101525.69
2023-03-19T23:11:53.880Z,101526.84
2023-03-19T23:14:31.679Z,101534.25
2023-03-19T23:17:03.431Z,101538.31
2023-03-19T23:19:34.813Z,101541.09
2023-03-19T23:22:05.261Z,101539.94
2023-03-19T23:24:33.968Z,101543.53
2023-03-19T23:27:03.529Z,101549.56
2023-03-19T23:29:39.819Z,101548.94
2023-03-19T23:32:08.242Z,101557.34
2023-03-19T23:34:49.753Z,101563.25
2023-03-19T23:37:24.428Z,101568.91
2023-03-19T23:39:53.648Z,101566.81
2023-03-19T23:42:30.135Z,101574.50
2023-03-19T23:45:03.737Z,101567.13
2023-03-19T23:47:32.674Z,101572.44
2023-03-19T23:50:01.230Z,101578.00
2023-03-19T23:52:29.625Z,101575.22
2023-03-19T23:54:58.092Z,101581.75
2023-03-19T23:57:27.988Z,101583.66
2023-03-19T23:59:56.672Z,101586.34
